Time;durP1;ratioP1;P1;durP2;ratioP2;P2;SDS_P1;SDS_P2;PMS_P1;PMS_P2;Temp;Humidity;BMP_temperature;BMP_pressure;BME280_temperature;BME280_humidity;BME280_pressure;Samples;Min_cycle;Max_cycle;Signal;HPM_P1;HPM_P2
2023/03/17 00:00:19;;;;;;;5.05;3.15;;;17.20;45.00;;;;;;4904620;29;20247;-81
2023/03/17 00:02:47;;;;;;;3.88;2.80;;;17.20;45.00;;;;;;4920976;29;20203;-81
2023/03/17 00:05:19;;;;;;;4.88;3.15;;;17.10;45.00;;;;;;4924398;29;20517;-81
2023/03/17 00:07:46;;;;;;;5.35;2.95;;;17.10;45.10;;;;;;4932394;29;20187;-80
2023/03/17 00:10:17;;;;;;;5.13;3.22;;;17.10;45.20;;;;;;4944430;29;20255;-80
2023/03/17 00:12:45;;;;;;;4.13;3.30;;;17.00;45.00;;;;;;4943942;29;20200;-80
2023/03/17 00:15:13;;;;;;;5.20;3.40;;;17.10;45.10;;;;;;4937664;29;20234;-80
2023/03/17 00:17:41;;;;;;;4.28;3.20;;;17.00;45.20;;;;;;4928432;29;20313;-80
2023/03/17 00:20:13;;;;;;;4.65;3.25;;;17.00;45.00;;;;;;4927859;29;20199;-80
2023/03/17 00:22:40;;;;;;;4.22;3.15;;;17.00;45.20;;;;;;4927601;29;20258;-80
2023/03/17 00:25:21;;;;;;;5.13;3.13;;;16.90;45.10;;;;;;4927097;29;20659;-80
2023/03/17 00:27:49;;;;;;;4.03;3.22;;;17.00;45.10;;;;;;4926721;29;20657;-80
2023/03/17 00:30:17;;;;;;;5.38;3.10;;;17.00;45.20;;;;;;4927166;29;20574;-80
2023/03/17 00:32:45;;;;;;;4.05;3.00;;;16.90;45.10;;;;;;4927246;29;20195;-80
2023/03/17 00:35:17;;;;;;;3.78;3.10;;;16.90;45.10;;;;;;4927122;29;20223;-80
2023/03/17 00:37:45;;;;;;;3.92;2.78;;;16.90;45.20;;;;;;4926572;29;20200;-80
2023/03/17 00:40:17;;;;;;;4.07;3.03;;;16.90;45.30;;;;;;4926514;29;20548;-80
2023/03/17 00:42:46;;;;;;;6.18;3.15;;;16.80;45.10;;;;;;4923902;29;20203;-80
2023/03/17 00:45:14;;;;;;;3.22;2.65;;;16.90;45.30;;;;;;4922892;29;20203;-80
2023/03/17 00:47:42;;;;;;;3.65;2.80;;;16.80;45.30;;;;;;4922798;29;20200;-80
2023/03/17 00:50:13;;;;;;;3.33;2.90;;;16.80;45.20;;;;;;4922774;29;20286;-80
2023/03/17 00:52:40;;;;;;;3.17;2.63;;;16.80;45.30;;;;;;4922844;29;20579;-80
2023/03/17 00:55:09;;;;;;;4.18;3.00;;;16.80;45.30;;;;;;4923509;29;20573;-80
2023/03/17 00:57:37;;;;;;;3.90;2.95;;;16.80;45.40;;;;;;4922661;29;20223;-80
2023/03/17 01:00:07;;;;;;;2.80;2.50;;;16.80;46.10;;;;;;4923460;29;20215;-80
2023/03/17 01:05:31;;;;;;;3.42;2.80;;;16.80;45.40;;;;;;5324598;23;20211;-69
2023/03/17 01:08:03;;;;;;;4.82;2.80;;;16.70;45.40;;;;;;4943754;29;20202;-71
2023/03/17 01:10:31;;;;;;;5.35;2.97;;;16.70;45.40;;;;;;4944842;29;20287;-70
2023/03/17 01:12:58;;;;;;;3.88;2.70;;;16.70;45.40;;;;;;4942391;29;20218;-71
2023/03/17 01:15:29;;;;;;;4.82;2.78;;;16.70;45.50;;;;;;4949613;29;20226;-70
2023/03/17 01:17:57;;;;;;;3.83;2.97;;;16.70;45.50;;;;;;4962102;29;20215;-70
2023/03/17 01:20:26;;;;;;;3.17;2.60;;;16.70;45.50;;;;;;4943141;29;20207;-71
2023/03/17 01:22:54;;;;;;;3.70;2.67;;;16.70;45.50;;;;;;4941481;29;20202;-72
2023/03/17 01:25:21;;;;;;;4.40;2.72;;;16.70;45.50;;;;;;4940845;29;20218;-72
2023/03/17 01:27:49;;;;;;;3.05;2.75;;;16.70;45.60;;;;;;4940563;29;20234;-72
2023/03/17 01:30:22;;;;;;;3.95;2.90;;;16.60;45.50;;;;;;4940776;29;20205;-72
2023/03/17 01:32:51;;;;;;;3.80;2.95;;;16.60;45.50;;;;;;4940558;29;20638;-72
2023/03/17 01:35:19;;;;;;;2.88;2.58;;;16.60;45.50;;;;;;4940076;29;20313;-72
2023/03/17 01:37:46;;;;;;;3.67;2.95;;;16.60;45.60;;;;;;4940426;29;20198;-72
2023/03/17 01:40:16;;;;;;;3.08;2.42;;;16.60;45.60;;;;;;4940410;29;20201;-72
2023/03/17 01:42:44;;;;;;;4.30;2.67;;;16.60;45.60;;;;;;4940291;29;20302;-72
2023/03/17 01:45:45;;;;;;;3.90;2.60;;;16.60;45.60;;;;;;4940298;29;20310;-72
2023/03/17 01:48:14;;;;;;;4.10;2.83;;;16.60;45.70;;;;;;4957197;29;20199;-72
2023/03/17 01:50:41;;;;;;;3.80;2.75;;;16.60;45.70;;;;;;4940019;29;20202;-72
2023/03/17 01:53:08;;;;;;;2.72;2.40;;;16.60;45.70;;;;;;4940113;29;20697;-72
2023/03/17 01:55:35;;;;;;;4.00;2.70;;;16.60;45.70;;;;;;4939869;29;20218;-72
2023/03/17 01:58:02;;;;;;;3.15;2.85;;;16.60;45.70;;;;;;4940820;29;20254;-72
2023/03/17 02:00:29;;;;;;;3.33;2.80;;;16.60;45.80;;;;;;4940038;29;20680;-72
2023/03/17 02:02:57;;;;;;;3.55;2.65;;;16.60;45.70;;;;;;4940054;29;20213;-72
2023/03/17 02:05:26;;;;;;;3.15;2.60;;;16.60;45.80;;;;;;4939718;29;20587;-72
2023/03/17 02:07:54;;;;;;;3.72;2.53;;;16.60;45.80;;;;;;4957233;28;20198;-72
2023/03/17 02:10:27;;;;;;;3.67;2.47;;;16.60;45.70;;;;;;4940044;29;20217;-72
2023/03/17 02:12:56;;;;;;;3.47;2.80;;;16.60;45.80;;;;;;4957200;29;20274;-71
2023/03/17 02:15:23;;;;;;;2.85;2.40;;;16.50;45.80;;;;;;4939956;29;20219;-71
2023/03/17 02:17:51;;;;;;;3.90;2.70;;;16.50;45.70;;;;;;4939709;29;20205;-72
2023/03/17 02:21:13;;;;;;;2.80;2.25;;;16.50;45.70;;;;;;4939771;29;20297;-72
2023/03/17 02:23:43;;;;;;;2.80;2.42;;;16.50;45.70;;;;;;4933152;29;20198;-72
2023/03/17 02:26:10;;;;;;;3.50;2.50;;;16.50;45.70;;;;;;4956566;28;20210;-72
2023/03/17 02:28:38;;;;;;;2.55;2.35;;;16.50;45.70;;;;;;4939316;29;20199;-72
2023/03/17 02:31:05;;;;;;;2.60;2.40;;;16.50;45.70;;;;;;4939667;29;20681;-72
2023/03/17 02:33:32;;;;;;;2.47;2.28;;;16.50;45.60;;;;;;4939648;29;20202;-72
2023/03/17 02:35:59;;;;;;;4.00;2.55;;;16.50;45.70;;;;;;4939126;29;20693;-72
2023/03/17 02:38:26;;;;;;;4.43;2.72;;;16.50;45.70;;;;;;4939282;29;20199;-71
2023/03/17 02:40:55;;;;;;;2.78;2.50;;;16.50;45.70;;;;;;4956407;29;20231;-72
2023/03/17 02:43:22;;;;;;;3.75;2.70;;;16.50;45.60;;;;;;4939011;29;20289;-70
2023/03/17 02:45:50;;;;;;;2.47;2.28;;;16.50;45.60;;;;;;4939073;29;20222;-72
2023/03/17 02:48:17;;;;;;;2.90;2.63;;;16.40;45.60;;;;;;4938955;29;20203;-72
2023/03/17 02:50:44;;;;;;;3.10;2.80;;;16.40;45.60;;;;;;4938981;29;20736;-71
2023/03/17 02:53:11;;;;;;;3.58;2.40;;;16.40;45.60;;;;;;4956379;28;20195;-72
2023/03/17 02:55:38;;;;;;;2.50;2.30;;;16.40;45.50;;;;;;4955673;28;20760;-72
2023/03/17 02:58:07;;;;;;;3.83;2.50;;;16.40;45.70;;;;;;4938476;29;20210;-71
2023/03/17 03:00:34;;;;;;;3.45;2.75;;;16.40;45.70;;;;;;4938374;29;20209;-72
2023/03/17 03:03:01;;;;;;;2.47;2.28;;;16.30;45.60;;;;;;4938655;29;20205;-72
2023/03/17 03:05:28;;;;;;;2.65;2.22;;;16.40;45.60;;;;;;4938725;29;20305;-71
2023/03/17 03:07:58;;;;;;;2.88;2.53;;;16.40;45.70;;;;;;4938570;29;20391;-72
2023/03/17 03:10:25;;;;;;;2.75;2.45;;;16.40;45.70;;;;;;4938692;29;20202;-72
2023/03/17 03:12:53;;;;;;;3.40;2.50;;;16.40;45.80;;;;;;4938691;29;20237;-72
2023/03/17 03:15:21;;;;;;;3.78;2.60;;;16.30;45.70;;;;;;4956014;28;20230;-72
2023/03/17 03:17:50;;;;;;;3.05;2.47;;;16.30;45.70;;;;;;4938833;29;20207;-72
2023/03/17 03:20:18;;;;;;;3.05;2.58;;;16.30;45.70;;;;;;4938580;29;20261;-72
2023/03/17 03:22:44;;;;;;;3.00;2.72;;;16.30;45.60;;;;;;4955844;29;20206;-72
2023/03/17 03:25:12;;;;;;;2.45;2.22;;;16.30;45.70;;;;;;4955780;28;20206;-72
2023/03/17 03:27:39;;;;;;;2.85;2.40;;;16.30;45.80;;;;;;4938343;29;20233;-72
2023/03/17 03:30:09;;;;;;;2.83;2.30;;;16.30;45.80;;;;;;4938519;29;20290;-72
2023/03/17 03:32:37;;;;;;;3.55;2.60;;;16.20;45.80;;;;;;4938473;29;20293;-70
2023/03/17 03:35:05;;;;;;;3.92;2.42;;;16.20;45.70;;;;;;4938381;29;20307;-69
2023/03/17 03:37:32;;;;;;;2.70;2.50;;;16.20;45.70;;;;;;4938970;28;20556;-68
2023/03/17 03:39:59;;;;;;;2.88;2.15;;;16.20;45.70;;;;;;4944514;29;20198;-68
2023/03/17 03:42:26;;;;;;;3.53;2.38;;;16.20;45.70;;;;;;4944618;29;20197;-68
2023/03/17 03:44:53;;;;;;;2.80;2.60;;;16.20;45.80;;;;;;4944648;29;20222;-70
2023/03/17 03:47:20;;;;;;;2.60;2.40;;;16.20;45.70;;;;;;4961850;28;20696;-70
2023/03/17 03:49:49;;;;;;;3.67;2.40;;;16.20;45.70;;;;;;4944803;29;20205;-69
2023/03/17 03:52:15;;;;;;;2.30;2.10;;;16.20;45.70;;;;;;4944713;29;20209;-69
2023/03/17 03:54:43;;;;;;;3.08;2.10;;;16.20;45.70;;;;;;4944433;28;20226;-69
2023/03/17 03:57:10;;;;;;;3.35;2.60;;;16.10;45.60;;;;;;4944810;29;20217;-69
2023/03/17 03:59:38;;;;;;;2.83;2.50;;;16.10;45.50;;;;;;4945466;29;20222;-70
2023/03/17 04:02:05;;;;;;;3.35;2.58;;;16.10;45.60;;;;;;4944813;29;20550;-71
2023/03/17 04:04:33;;;;;;;2.60;2.30;;;16.10;45.50;;;;;;4962640;28;20219;-70
2023/03/17 04:07:02;;;;;;;3.40;2.30;;;16.10;45.60;;;;;;4944410;28;20205;-70
2023/03/17 04:09:29;;;;;;;3.83;2.40;;;16.10;45.60;;;;;;4944979;29;20198;-70
2023/03/17 04:11:56;;;;;;;2.45;2.25;;;16.10;45.60;;;;;;4944539;29;20294;-70
2023/03/17 04:14:23;;;;;;;2.63;2.42;;;16.10;45.60;;;;;;4944391;29;20225;-70
2023/03/17 04:16:50;;;;;;;2.92;2.63;;;16.10;45.70;;;;;;4961522;28;20334;-70
2023/03/17 04:19:17;;;;;;;2.72;2.28;;;16.10;45.80;;;;;;4961383;28;20691;-70
2023/03/17 04:21:45;;;;;;;2.55;2.35;;;16.10;45.80;;;;;;4961503;28;20194;-70
2023/03/17 04:24:15;;;;;;;3.85;2.30;;;16.00;45.80;;;;;;4944241;28;20665;-69
2023/03/17 04:26:42;;;;;;;2.25;2.05;;;16.00;45.60;;;;;;4944297;29;20191;-70
2023/03/17 04:29:14;;;;;;;2.40;2.20;;;16.10;45.70;;;;;;4944935;29;20210;-70
2023/03/17 04:31:41;;;;;;;2.97;2.63;;;16.00;45.60;;;;;;4944309;29;20182;-70
2023/03/17 04:34:11;;;;;;;2.53;2.33;;;16.10;45.70;;;;;;4944355;28;20261;-70
2023/03/17 04:36:39;;;;;;;3.90;2.47;;;16.10;45.70;;;;;;4944109;29;20230;-70
2023/03/17 04:39:06;;;;;;;2.78;2.30;;;16.10;45.60;;;;;;4944300;28;20685;-70
2023/03/17 04:41:35;;;;;;;2.42;2.22;;;16.10;45.70;;;;;;4961634;28;20249;-71
2023/03/17 04:44:02;;;;;;;4.22;2.47;;;16.00;45.50;;;;;;4961583;28;20684;-70
2023/03/17 04:46:30;;;;;;;3.63;2.67;;;16.10;45.50;;;;;;4944313;28;20591;-70
2023/03/17 04:48:57;;;;;;;4.03;2.47;;;16.10;45.60;;;;;;4943842;28;20214;-70
2023/03/17 04:51:24;;;;;;;4.00;2.58;;;16.10;45.50;;;;;;4940520;29;20207;-70
2023/03/17 04:53:52;;;;;;;2.80;2.60;;;16.00;45.60;;;;;;4958677;28;20281;-70
2023/03/17 04:56:19;;;;;;;2.80;2.60;;;16.10;45.60;;;;;;4941273;29;20292;-69
2023/03/17 04:58:48;;;;;;;3.38;2.80;;;16.10;45.70;;;;;;4958555;28;20234;-70
2023/03/17 05:01:15;;;;;;;2.60;2.40;;;16.10;45.50;;;;;;4941088;29;20195;-70
2023/03/17 05:03:42;;;;;;;2.33;2.13;;;16.10;45.60;;;;;;4941017;29;20199;-70
2023/03/17 05:06:09;;;;;;;2.33;2.10;;;16.10;45.50;;;;;;4958275;28;20237;-69
2023/03/17 05:08:37;;;;;;;2.72;2.30;;;16.10;45.70;;;;;;4958308;28;20636;-70
2023/03/17 05:11:04;;;;;;;4.80;2.40;;;16.10;45.60;;;;;;4941683;29;20645;-69
2023/03/17 05:13:31;;;;;;;3.40;2.50;;;16.10;45.50;;;;;;4941473;29;20215;-69
2023/03/17 05:16:00;;;;;;;2.40;2.20;;;16.10;45.40;;;;;;4940883;29;20318;-69
2023/03/17 05:18:27;;;;;;;3.00;2.30;;;16.00;45.30;;;;;;4940510;29;20210;-69
2023/03/17 05:20:54;;;;;;;2.40;2.20;;;16.10;45.40;;;;;;4940503;29;20207;-70
2023/03/17 05:23:22;;;;;;;2.33;2.13;;;16.10;45.40;;;;;;4972692;28;20191;-69
2023/03/17 05:25:49;;;;;;;2.97;2.47;;;16.10;45.40;;;;;;4945389;29;20219;-70
2023/03/17 05:28:17;;;;;;;2.70;2.10;;;16.10;45.30;;;;;;4957542;28;20191;-69
2023/03/17 05:30:44;;;;;;;2.95;2.45;;;16.10;45.30;;;;;;4957718;28;20190;-70
2023/03/17 05:33:13;;;;;;;2.50;2.30;;;16.10;45.30;;;;;;4940540;29;20298;-69
2023/03/17 05:35:41;;;;;;;2.67;2.10;;;16.20;45.30;;;;;;4958109;28;20241;-71
2023/03/17 05:38:08;;;;;;;3.08;2.53;;;16.10;45.10;;;;;;4940817;29;20340;-70
2023/03/17 05:40:35;;;;;;;2.63;2.42;;;16.20;44.90;;;;;;4958615;28;20218;-70
2023/03/17 05:43:03;;;;;;;2.67;2.47;;;16.20;45.00;;;;;;4941790;29;20195;-70
2023/03/17 05:45:30;;;;;;;2.80;2.33;;;16.20;45.10;;;;;;4959443;28;20767;-69
2023/03/17 05:47:57;;;;;;;3.08;2.78;;;16.20;45.20;;;;;;4940828;29;20219;-68
2023/03/17 05:50:26;;;;;;;2.80;2.58;;;16.20;45.40;;;;;;4958252;29;20199;-70
2023/03/17 05:52:53;;;;;;;2.40;2.20;;;16.20;45.20;;;;;;4941123;29;20199;-70
2023/03/17 05:55:21;;;;;;;2.70;2.50;;;16.20;45.20;;;;;;4957554;28;20223;-69
2023/03/17 05:57:49;;;;;;;5.60;2.40;;;16.30;45.30;;;;;;4940585;29;20210;-71
2023/03/17 06:00:17;;;;;;;3.42;2.58;;;16.30;45.40;;;;;;4940773;29;20290;-70
2023/03/17 06:02:45;;;;;;;2.90;2.28;;;16.30;45.00;;;;;;4957153;28;20221;-68
2023/03/17 06:05:12;;;;;;;3.85;2.50;;;16.30;45.20;;;;;;4957266;28;20231;-70
2023/03/17 06:07:41;;;;;;;2.95;2.22;;;16.30;45.20;;;;;;4940169;29;20305;-70
2023/03/17 06:10:10;;;;;;;2.83;2.50;;;16.30;45.20;;;;;;4940105;29;20217;-70
2023/03/17 06:12:37;;;;;;;3.00;2.40;;;16.40;45.40;;;;;;4957563;29;20254;-70
2023/03/17 06:15:07;;;;;;;2.50;2.28;;;16.40;45.20;;;;;;4957067;28;20222;-70
2023/03/17 06:17:34;;;;;;;3.05;2.50;;;16.50;45.20;;;;;;4939567;29;20766;-70
2023/03/17 06:20:01;;;;;;;2.55;2.22;;;16.50;45.40;;;;;;4939993;29;20202;-70
2023/03/17 06:22:28;;;;;;;4.03;2.50;;;16.50;45.20;;;;;;4940174;29;20629;-71
2023/03/17 06:24:58;;;;;;;3.08;2.60;;;16.60;45.20;;;;;;4939672;29;20258;-70
2023/03/17 06:27:25;;;;;;;2.33;2.13;;;16.60;44.90;;;;;;4939530;29;20199;-70
2023/03/17 06:29:52;;;;;;;3.50;2.40;;;16.60;44.80;;;;;;4956556;29;20186;-71
2023/03/17 06:32:19;;;;;;;2.92;2.63;;;16.60;44.70;;;;;;4939300;29;20693;-71
2023/03/17 06:34:47;;;;;;;3.00;2.40;;;16.60;44.70;;;;;;4939901;29;20226;-70
2023/03/17 06:37:14;;;;;;;2.78;2.40;;;16.70;44.70;;;;;;4939526;29;20736;-71
2023/03/17 06:39:41;;;;;;;2.80;2.30;;;16.80;44.40;;;;;;4939504;29;20241;-70
2023/03/17 06:42:10;;;;;;;2.85;2.50;;;16.80;44.30;;;;;;4956238;29;20562;-71
2023/03/17 06:47:04;;;;;;;2.67;2.33;;;16.80;44.10;;;;;;4953507;29;20309;-55
2023/03/17 06:49:32;;;;;;;2.97;2.08;;;16.80;44.10;;;;;;4955584;28;20214;-56
2023/03/17 06:51:59;;;;;;;2.70;2.38;;;16.90;44.00;;;;;;4955694;29;20205;-55
2023/03/17 06:54:27;;;;;;;2.40;2.20;;;16.90;43.80;;;;;;4955388;28;20195;-56
2023/03/17 06:56:55;;;;;;;2.60;2.40;;;17.00;43.70;;;;;;4955320;29;20703;-56
2023/03/17 06:59:24;;;;;;;4.55;2.40;;;17.00;43.90;;;;;;4937831;29;20241;-56
2023/03/17 07:01:51;;;;;;;3.25;2.47;;;17.10;43.70;;;;;;4938089;29;20202;-56
2023/03/17 07:04:18;;;;;;;3.40;2.78;;;17.20;43.60;;;;;;4955192;28;20274;-56
2023/03/17 07:06:47;;;;;;;4.10;2.90;;;17.20;43.60;;;;;;4955453;28;20193;-56
2023/03/17 07:09:15;;;;;;;2.92;2.60;;;17.30;43.20;;;;;;4954849;28;20221;-56
2023/03/17 07:11:43;;;;;;;4.03;2.58;;;17.40;42.80;;;;;;4954853;29;20190;-56
2023/03/17 07:14:10;;;;;;;3.30;2.70;;;17.50;42.80;;;;;;4954311;28;20274;-56
2023/03/17 07:16:39;;;;;;;2.55;2.35;;;17.70;43.30;;;;;;4937568;29;20254;-56
2023/03/17 07:19:06;;;;;;;3.10;2.65;;;17.80;42.40;;;;;;4937578;29;20215;-56
2023/03/17 07:21:33;;;;;;;3.17;2.50;;;17.90;42.80;;;;;;4954999;28;20222;-55
2023/03/17 07:24:01;;;;;;;3.05;2.80;;;18.00;41.90;;;;;;4954886;28;20197;-56
2023/03/17 07:26:28;;;;;;;3.15;2.53;;;18.10;41.70;;;;;;4955146;29;20194;-56
2023/03/17 07:28:56;;;;;;;3.03;2.60;;;18.30;41.40;;;;;;4954845;28;20206;-56
2023/03/17 07:31:24;;;;;;;2.63;2.42;;;18.40;41.40;;;;;;4955104;29;20201;-56
2023/03/17 07:33:52;;;;;;;3.25;2.90;;;18.40;41.00;;;;;;4955152;29;20665;-55
2023/03/17 07:36:20;;;;;;;2.90;2.70;;;18.50;41.10;;;;;;4937538;29;20309;-55
2023/03/17 07:38:47;;;;;;;2.70;2.50;;;18.50;40.80;;;;;;4955225;28;20218;-55
2023/03/17 07:41:14;;;;;;;3.42;2.60;;;18.50;40.90;;;;;;4955124;28;20195;-55
2023/03/17 07:43:42;;;;;;;2.50;2.30;;;18.60;40.80;;;;;;4955312;28;20191;-55
2023/03/17 07:46:09;;;;;;;3.28;2.67;;;18.60;40.60;;;;;;4955284;28;20241;-55
2023/03/17 07:48:39;;;;;;;3.47;2.88;;;18.70;40.30;;;;;;4955832;28;20217;-56
2023/03/17 07:51:11;;;;;;;3.22;2.67;;;18.70;40.20;;;;;;4955763;29;20182;-56
2023/03/17 07:53:38;;;;;;;2.78;2.58;;;18.80;40.30;;;;;;4955423;29;20189;-55
2023/03/17 07:56:05;;;;;;;4.18;2.80;;;18.90;40.10;;;;;;4954951;28;20681;-56
2023/03/17 07:58:33;;;;;;;3.63;2.65;;;18.90;40.00;;;;;;4954760;28;20572;-56
2023/03/17 08:01:00;;;;;;;2.92;2.63;;;19.00;40.00;;;;;;4954687;28;20195;-56
2023/03/17 08:03:29;;;;;;;3.78;2.83;;;19.00;40.00;;;;;;4954665;29;20213;-55
2023/03/17 08:05:56;;;;;;;3.05;2.45;;;19.10;40.20;;;;;;4954658;29;20563;-56
2023/03/17 08:08:24;;;;;;;5.10;2.78;;;19.20;40.00;;;;;;4954837;28;20207;-56
2023/03/17 08:10:52;;;;;;;4.03;2.67;;;19.30;39.80;;;;;;4954440;29;20735;-56
2023/03/17 08:13:19;;;;;;;2.53;2.30;;;19.40;39.80;;;;;;4937267;29;20213;-56
2023/03/17 08:15:46;;;;;;;4.47;2.92;;;19.50;39.70;;;;;;4937115;29;20199;-56
2023/03/17 08:18:13;;;;;;;2.95;2.67;;;19.60;39.80;;;;;;4954333;28;20594;-55
2023/03/17 08:20:40;;;;;;;3.03;2.63;;;19.80;39.70;;;;;;4954449;29;20198;-56
2023/03/17 08:23:08;;;;;;;2.78;2.58;;;19.80;39.60;;;;;;4937078;29;20203;-55
2023/03/17 08:25:38;;;;;;;2.95;2.67;;;19.90;39.50;;;;;;4957236;28;20198;-56
2023/03/17 08:28:05;;;;;;;2.58;2.33;;;20.10;39.40;;;;;;4972601;28;20593;-56
2023/03/17 08:30:33;;;;;;;3.10;2.65;;;20.20;39.30;;;;;;4972563;28;20215;-56
2023/03/17 08:33:00;;;;;;;3.08;2.78;;;20.20;39.20;;;;;;4957589;28;20579;-55
2023/03/17 08:35:27;;;;;;;2.63;2.42;;;20.40;39.30;;;;;;4940584;29;20231;-56
2023/03/17 08:37:55;;;;;;;2.80;2.60;;;20.40;39.20;;;;;;4940239;28;20225;-56
2023/03/17 08:40:22;;;;;;;2.38;2.17;;;20.40;38.80;;;;;;4940351;29;20210;-55
2023/03/17 08:42:51;;;;;;;2.78;2.50;;;20.40;39.10;;;;;;4957551;29;20226;-56
2023/03/17 08:45:19;;;;;;;2.50;2.30;;;20.40;39.00;;;;;;4940288;29;20215;-56
2023/03/17 08:47:46;;;;;;;2.83;2.50;;;20.40;39.30;;;;;;4940264;28;20656;-56
2023/03/17 08:50:17;;;;;;;2.63;2.40;;;20.50;39.10;;;;;;4957462;28;20656;-56
2023/03/17 08:52:44;;;;;;;2.67;2.47;;;20.50;39.20;;;;;;4957292;28;20194;-56
2023/03/17 08:55:12;;;;;;;2.42;1.95;;;20.60;39.00;;;;;;4957414;28;20265;-56
2023/03/17 08:57:39;;;;;;;2.30;2.10;;;20.70;38.90;;;;;;4957133;28;20755;-56
2023/03/17 09:00:10;;;;;;;2.45;2.25;;;20.80;38.90;;;;;;4957258;29;20214;-56
2023/03/17 09:02:37;;;;;;;2.50;2.30;;;20.90;38.90;;;;;;4940030;29;20285;-56
2023/03/17 09:05:04;;;;;;;3.08;2.10;;;21.00;38.80;;;;;;4957329;29;20566;-56
2023/03/17 09:07:32;;;;;;;2.42;2.20;;;21.10;38.60;;;;;;4940260;29;20195;-56
2023/03/17 09:09:59;;;;;;;2.28;2.08;;;21.10;39.10;;;;;;4939696;29;20219;-56
2023/03/17 09:12:26;;;;;;;3.08;2.42;;;21.20;38.50;;;;;;4957240;28;20191;-56
2023/03/17 09:14:55;;;;;;;2.40;2.08;;;21.20;38.40;;;;;;4971653;28;20275;-55
2023/03/17 09:17:23;;;;;;;2.20;2.00;;;21.20;38.30;;;;;;4956843;29;20218;-55
2023/03/17 09:19:50;;;;;;;2.40;2.20;;;21.20;38.30;;;;;;4939569;29;20652;-55
2023/03/17 09:22:17;;;;;;;2.85;2.28;;;21.40;38.20;;;;;;4940317;29;20626;-56
2023/03/17 09:24:44;;;;;;;2.20;2.00;;;21.40;38.00;;;;;;4956808;29;20254;-56
2023/03/17 09:27:13;;;;;;;2.45;2.10;;;21.50;37.90;;;;;;4956730;29;20193;-56
2023/03/17 09:29:41;;;;;;;2.67;1.90;;;21.60;37.90;;;;;;4956711;28;20294;-56
2023/03/17 09:32:08;;;;;;;2.55;1.98;;;21.70;37.80;;;;;;4956795;29;20214;-56
2023/03/17 09:34:37;;;;;;;2.08;1.83;;;21.80;37.60;;;;;;4956600;28;20199;-56
2023/03/17 09:37:04;;;;;;;2.92;2.10;;;21.80;37.70;;;;;;4938515;29;20626;-56
2023/03/17 09:39:32;;;;;;;2.40;2.20;;;21.80;37.60;;;;;;4939265;29;20228;-56
2023/03/17 09:42:11;;;;;;;2.40;2.20;;;21.80;37.60;;;;;;4956433;29;20206;-56
2023/03/17 09:44:58;;;;;;;2.20;2.00;;;21.90;37.60;;;;;;4939104;28;20298;-56
2023/03/17 09:47:57;;;;;;;2.10;1.90;;;21.90;38.30;;;;;;4939161;29;20199;-56
2023/03/17 09:50:28;;;;;;;2.33;1.90;;;21.90;37.60;;;;;;4916810;29;20203;-56
2023/03/17 09:52:57;;;;;;;2.50;1.77;;;21.80;37.70;;;;;;4956566;29;20266;-56
2023/03/17 09:55:26;;;;;;;2.00;1.83;;;21.90;37.90;;;;;;4956243;28;20195;-55
2023/03/17 09:57:55;;;;;;;1.80;1.70;;;21.80;37.80;;;;;;4938788;28;20763;-55
2023/03/17 10:00:26;;;;;;;2.00;1.90;;;21.90;37.80;;;;;;4956419;28;20198;-55
2023/03/17 10:02:53;;;;;;;2.17;1.90;;;21.90;37.70;;;;;;4956204;29;20703;-56
2023/03/17 10:05:21;;;;;;;1.80;1.70;;;21.90;37.70;;;;;;4956297;29;20205;-56
2023/03/17 10:07:54;;;;;;;2.15;1.95;;;22.00;37.80;;;;;;4955946;28;20191;-56
2023/03/17 10:10:25;;;;;;;2.15;1.83;;;22.00;37.50;;;;;;4956203;29;20237;-56
2023/03/17 10:12:56;;;;;;;2.65;1.80;;;22.10;37.60;;;;;;4939448;29;20202;-56
2023/03/17 10:15:25;;;;;;;2.00;1.90;;;22.10;37.50;;;;;;4955866;29;20175;-56
2023/03/17 10:17:52;;;;;;;2.30;1.70;;;22.10;37.30;;;;;;4955592;28;20211;-56
2023/03/17 10:20:23;;;;;;;1.95;1.85;;;22.20;37.40;;;;;;4955761;28;20199;-56
2023/03/17 10:22:53;;;;;;;1.90;1.80;;;22.20;37.50;;;;;;4955712;29;20226;-56
2023/03/17 10:25:21;;;;;;;1.92;1.83;;;22.20;37.40;;;;;;4955925;29;20179;-56
2023/03/17 10:27:51;;;;;;;1.80;1.70;;;22.30;37.30;;;;;;4955856;28;20560;-56
2023/03/17 10:30:20;;;;;;;2.00;1.75;;;22.20;37.40;;;;;;4955335;28;20191;-56
2023/03/17 10:32:48;;;;;;;2.17;1.77;;;22.20;37.50;;;;;;4955506;29;20191;-56
2023/03/17 10:35:15;;;;;;;2.00;1.85;;;22.20;37.60;;;;;;4955497;28;20297;-56
2023/03/17 10:37:43;;;;;;;1.98;1.77;;;22.10;37.60;;;;;;4955128;28;20596;-56
2023/03/17 10:40:22;;;;;;;2.10;2.00;;;22.00;37.60;;;;;;4955375;29;20274;-56
2023/03/17 10:42:52;;;;;;;2.20;2.00;;;22.00;37.70;;;;;;4955900;29;20186;-56
2023/03/17 10:45:24;;;;;;;2.28;1.90;;;22.00;37.80;;;;;;4955533;28;20205;-56
2023/03/17 10:47:52;;;;;;;1.83;1.73;;;22.00;37.90;;;;;;4954343;28;20593;-56
2023/03/17 10:50:22;;;;;;;1.60;1.50;;;22.00;37.90;;;;;;4955241;29;20191;-56
2023/03/17 10:52:52;;;;;;;1.70;1.60;;;22.00;37.90;;;;;;4955343;28;20206;-55
2023/03/17 10:55:22;;;;;;;2.13;1.92;;;22.00;37.80;;;;;;4955600;29;20179;-56
2023/03/17 10:57:51;;;;;;;1.92;1.80;;;22.00;37.90;;;;;;4955025;28;20417;-56
2023/03/17 11:00:19;;;;;;;1.80;1.70;;;22.00;38.00;;;;;;4955134;29;20199;-55
2023/03/17 11:02:48;;;;;;;1.80;1.70;;;21.90;38.00;;;;;;4955203;28;20274;-56
2023/03/17 11:05:20;;;;;;;1.67;1.58;;;21.90;38.20;;;;;;4937972;29;20297;-56
2023/03/17 11:07:48;;;;;;;3.55;1.98;;;21.90;38.20;;;;;;4969988;28;20245;-56
2023/03/17 11:10:18;;;;;;;1.88;1.70;;;21.80;38.10;;;;;;4955703;29;20246;-56
2023/03/17 11:12:48;;;;;;;1.52;1.42;;;21.90;38.20;;;;;;4955628;29;20186;-56
2023/03/17 11:15:16;;;;;;;2.15;1.80;;;21.90;38.20;;;;;;4955262;29;20191;-56
2023/03/17 11:17:50;;;;;;;3.20;1.83;;;21.90;38.20;;;;;;4955112;28;20218;-56
2023/03/17 11:20:44;;;;;;;1.67;1.58;;;21.90;38.20;;;;;;4955502;29;20621;-55
2023/03/17 11:23:22;;;;;;;1.98;1.80;;;21.80;38.10;;;;;;4928619;29;20664;-56
2023/03/17 11:25:54;;;;;;;2.05;1.90;;;21.80;38.10;;;;;;4955178;29;20187;-56
2023/03/17 11:28:24;;;;;;;1.83;1.70;;;21.80;38.10;;;;;;4937505;29;20294;-55
2023/03/17 11:30:56;;;;;;;1.80;1.70;;;21.90;38.20;;;;;;4954909;29;20191;-56
2023/03/17 11:33:33;;;;;;;2.08;1.70;;;21.90;38.20;;;;;;4937618;29;20655;-55
2023/03/17 11:36:02;;;;;;;2.13;1.80;;;21.80;38.10;;;;;;4937665;29;20198;-56
2023/03/17 11:38:30;;;;;;;1.60;1.50;;;21.80;38.10;;;;;;4954608;28;20680;-55
2023/03/17 11:41:19;;;;;;;2.17;1.98;;;21.80;38.20;;;;;;4954685;29;20236;-55
2023/03/17 11:44:06;;;;;;;1.77;1.67;;;21.80;38.10;;;;;;4937706;29;20206;-55
2023/03/17 11:46:36;;;;;;;1.60;1.50;;;21.80;38.30;;;;;;4935991;29;20743;-56
2023/03/17 11:49:08;;;;;;;1.88;1.75;;;21.80;38.30;;;;;;4937439;29;20269;-55
2023/03/17 11:51:37;;;;;;;1.80;1.70;;;21.80;38.20;;;;;;4937655;29;20199;-56
2023/03/17 11:54:10;;;;;;;1.67;1.50;;;21.80;38.30;;;;;;4954917;29;20558;-55
2023/03/17 11:56:40;;;;;;;1.80;1.70;;;21.80;38.40;;;;;;4954955;29;20246;-56
2023/03/17 11:59:18;;;;;;;1.60;1.50;;;21.80;38.40;;;;;;4956590;28;20222;-56
2023/03/17 12:01:53;;;;;;;1.70;1.60;;;21.70;38.50;;;;;;4959192;29;20225;-56
2023/03/17 12:04:25;;;;;;;1.80;1.70;;;21.70;38.60;;;;;;4958784;29;20206;-56
2023/03/17 12:06:56;;;;;;;1.90;1.70;;;21.70;38.50;;;;;;4958927;29;20684;-56
2023/03/17 12:09:27;;;;;;;2.08;1.80;;;21.70;38.60;;;;;;4958287;28;20562;-55
2023/03/17 12:11:54;;;;;;;1.88;1.77;;;21.70;38.60;;;;;;4941016;29;20712;-56
2023/03/17 12:14:27;;;;;;;1.50;1.40;;;21.80;38.70;;;;;;4941337;29;20218;-56
2023/03/17 12:16:58;;;;;;;1.75;1.65;;;21.70;38.70;;;;;;4958688;29;20596;-56
2023/03/17 12:19:27;;;;;;;1.90;1.70;;;21.80;38.90;;;;;;4957996;28;20215;-56
2023/03/17 12:21:55;;;;;;;2.00;1.65;;;21.80;38.80;;;;;;4940892;29;20231;-56
2023/03/17 12:24:25;;;;;;;1.80;1.70;;;21.80;38.90;;;;;;4958308;29;20719;-55
2023/03/17 12:26:56;;;;;;;1.77;1.65;;;21.80;38.80;;;;;;4940821;29;20207;-56
2023/03/17 12:29:34;;;;;;;1.60;1.50;;;21.80;38.90;;;;;;4958323;28;20222;-56
2023/03/17 12:32:03;;;;;;;1.55;1.45;;;21.80;38.80;;;;;;4957834;29;20641;-56
2023/03/17 12:34:33;;;;;;;1.80;1.70;;;21.80;38.70;;;;;;4940479;29;20191;-56
2023/03/17 12:37:01;;;;;;;1.70;1.60;;;21.80;38.80;;;;;;4957885;29;20539;-56
2023/03/17 12:39:30;;;;;;;1.52;1.42;;;21.80;38.80;;;;;;4972495;28;20644;-56
2023/03/17 12:42:12;;;;;;;1.85;1.75;;;21.80;38.90;;;;;;4958158;29;20195;-56
2023/03/17 12:44:48;;;;;;;2.00;1.80;;;21.80;39.10;;;;;;4957868;28;20194;-55
2023/03/17 12:47:23;;;;;;;2.13;1.60;;;21.80;39.00;;;;;;4957902;29;20696;-56
2023/03/17 12:50:18;;;;;;;1.60;1.50;;;21.80;39.00;;;;;;4957834;28;20221;-56
2023/03/17 12:52:52;;;;;;;1.70;1.60;;;21.80;39.00;;;;;;4957880;29;20186;-56
2023/03/17 12:55:22;;;;;;;2.45;1.50;;;21.80;39.70;;;;;;4940311;29;20664;-56
2023/03/17 12:57:59;;;;;;;2.00;1.80;;;21.80;39.10;;;;;;4957259;28;20295;-56
2023/03/17 13:00:29;;;;;;;1.75;1.63;;;21.80;39.10;;;;;;4940147;29;20198;-56
2023/03/17 13:03:08;;;;;;;1.70;1.60;;;21.80;39.10;;;;;;4957460;28;20199;-56